Time;durP1;ratioP1;P1;durP2;ratioP2;P2;SDS_P1;SDS_P2;PMS_P1;PMS_P2;Temp;Humidity;BMP_temperature;BMP_pressure;BME280_temperature;BME280_humidity;BME280_pressure;Samples;Min_cycle;Max_cycle;Signal;HPM_P1;HPM_P2
2023/05/02 00:02:47;;;;;;;19.50;10.40;;;;;;;8.29;52.58;100122.39;131490;1254;105709;-79
2023/05/02 00:05:52;;;;;;;22.90;11.30;;;;;;;8.26;52.48;100123.82;131114;1254;107507;-79
2023/05/02 00:08:58;;;;;;;20.00;10.00;;;;;;;8.26;52.53;100121.72;131250;1263;108107;-79
2023/05/02 00:12:04;;;;;;;18.60;9.20;;;;;;;8.25;52.67;100123.90;131356;1253;107383;-80
2023/05/02 00:15:10;;;;;;;18.10;9.30;;;;;;;8.24;52.90;100119.93;131404;1247;107448;-79
2023/05/02 00:18:16;;;;;;;17.70;9.70;;;;;;;8.21;52.85;100120.09;131527;1253;107504;-79
2023/05/02 00:21:22;;;;;;;19.10;9.30;;;;;;;8.20;52.92;100117.67;131444;1253;106693;-78
2023/05/02 00:24:27;;;;;;;18.10;9.90;;;;;;;8.20;52.97;100121.00;131255;1247;107519;-79
2023/05/02 00:27:33;;;;;;;19.70;10.10;;;;;;;8.21;53.04;100115.09;131435;1248;107349;-79
2023/05/02 00:30:42;;;;;;;22.20;10.80;;;;;;;8.22;53.22;100112.72;131375;1263;107679;-79
2023/05/02 00:33:47;;;;;;;19.80;10.00;;;;;;;8.23;53.22;100111.94;131362;1254;107506;-79
2023/05/02 00:36:54;;;;;;;18.50;10.10;;;;;;;8.23;53.44;100105.85;131188;1248;107448;-79
2023/05/02 00:39:59;;;;;;;18.40;9.60;;;;;;;8.22;53.64;100104.19;131232;1253;107527;-80
2023/05/02 00:43:05;;;;;;;19.70;9.80;;;;;;;8.23;53.51;100105.36;131208;1263;107377;-79
2023/05/02 00:46:11;;;;;;;18.20;9.90;;;;;;;8.22;53.77;100102.06;131234;1254;107543;-80
2023/05/02 00:49:17;;;;;;;18.20;9.60;;;;;;;8.22;53.46;100098.01;131414;1250;107476;-79
2023/05/02 00:52:23;;;;;;;18.70;8.80;;;;;;;8.20;53.78;100100.89;131277;1252;107138;-79
2023/05/02 00:55:29;;;;;;;18.40;8.50;;;;;;;8.19;54.02;100099.65;131416;1254;107577;-79
2023/05/02 00:58:36;;;;;;;15.90;8.80;;;;;;;8.18;53.84;100096.39;131184;1251;107589;-80
2023/05/02 01:02:00;;;;;;;15.20;7.90;;;;;;;8.18;53.95;100094.50;131273;1250;107401;-80
2023/05/02 01:05:15;;;;;;;16.50;8.20;;;;;;;8.16;53.93;100094.48;131320;1253;107541;-80
2023/05/02 01:08:34;;;;;;;13.80;7.90;;;;;;;8.15;54.49;100089.73;131278;1263;107179;-79
2023/05/02 01:11:48;;;;;;;13.70;7.00;;;;;;;8.16;54.24;100091.31;131250;1251;107134;-79
2023/05/02 01:14:56;;;;;;;13.40;6.90;;;;;;;8.18;54.48;100090.95;131195;1251;108491;-78
2023/05/02 01:18:03;;;;;;;13.60;6.80;;;;;;;8.20;54.54;100089.97;131306;1247;107978;-79
2023/05/02 01:21:11;;;;;;;12.70;7.00;;;;;;;8.25;54.47;100091.17;131263;1248;106339;-80
2023/05/02 01:24:25;;;;;;;10.60;6.40;;;;;;;8.33;54.44;100086.34;131263;1253;107338;-80
2023/05/02 01:27:40;;;;;;;11.50;6.90;;;;;;;8.40;54.63;100079.14;131245;1250;107414;-79
2023/05/02 01:30:50;;;;;;;11.30;6.50;;;;;;;8.45;54.80;100076.92;131216;1253;107627;-80
2023/05/02 01:33:58;;;;;;;11.00;6.10;;;;;;;8.48;54.82;100071.31;131568;1253;107349;-80
2023/05/02 01:37:05;;;;;;;9.40;5.60;;;;;;;8.53;54.70;100064.52;131304;1251;107541;-79
2023/05/02 01:40:14;;;;;;;9.10;6.10;;;;;;;8.55;54.70;100062.83;131372;1250;107522;-80
2023/05/02 01:43:21;;;;;;;10.40;5.60;;;;;;;8.56;54.78;100060.59;131342;1254;107380;-78
2023/05/02 01:46:30;;;;;;;11.70;6.00;;;;;;;8.58;54.93;100054.30;131435;1254;107441;-78
2023/05/02 01:49:36;;;;;;;10.50;6.00;;;;;;;8.60;54.82;100047.90;131287;1250;107246;-79
2023/05/02 01:52:44;;;;;;;8.70;5.40;;;;;;;8.61;54.97;100045.41;131214;1253;107564;-78
2023/05/02 01:55:52;;;;;;;9.10;5.50;;;;;;;8.63;54.91;100042.63;131429;1253;107521;-79
2023/05/02 01:58:59;;;;;;;8.10;5.60;;;;;;;8.63;54.91;100037.48;131425;1253;107578;-78
2023/05/02 02:02:07;;;;;;;11.10;5.30;;;;;;;8.62;55.09;100035.91;131397;1253;107534;-79
2023/05/02 02:05:14;;;;;;;10.00;5.60;;;;;;;8.63;55.06;100037.59;131307;1253;106542;-79
2023/05/02 02:08:20;;;;;;;8.30;5.50;;;;;;;8.65;55.20;100033.17;131439;1254;107529;-79
2023/05/02 02:11:43;;;;;;;9.50;5.50;;;;;;;8.69;55.21;100030.70;131116;1264;107194;-80
2023/05/02 02:14:56;;;;;;;12.40;5.70;;;;;;;8.73;55.33;100025.06;131359;1260;107251;-80
2023/05/02 02:18:04;;;;;;;8.60;5.50;;;;;;;8.74;55.18;100023.33;131294;1250;107261;-80
2023/05/02 02:21:12;;;;;;;8.00;5.30;;;;;;;8.76;55.25;100026.17;131348;1254;107410;-80
2023/05/02 02:24:21;;;;;;;8.70;5.00;;;;;;;8.75;55.33;100023.73;131216;1254;107214;-78
2023/05/02 02:27:27;;;;;;;10.10;4.90;;;;;;;8.72;55.27;100022.12;131353;1248;107492;-78
2023/05/02 02:30:33;;;;;;;9.00;5.40;;;;;;;8.69;55.17;100023.09;131420;1250;107458;-78
2023/05/02 02:33:40;;;;;;;8.20;5.10;;;;;;;8.66;55.29;100017.89;131337;1248;107517;-78
2023/05/02 02:36:49;;;;;;;10.20;5.30;;;;;;;8.62;55.38;100019.81;131261;1248;107534;-78
2023/05/02 02:40:04;;;;;;;8.10;5.30;;;;;;;8.59;55.51;100019.08;131475;1266;106544;-78
2023/05/02 02:43:20;;;;;;;12.20;5.70;;;;;;;8.57;55.61;100021.34;131402;1253;106744;-78
2023/05/02 02:46:35;;;;;;;9.20;5.10;;;;;;;8.54;55.60;100018.48;131169;1251;106384;-80
2023/05/02 02:49:48;;;;;;;9.60;4.70;;;;;;;8.53;55.55;100026.23;131335;1253;107408;-80
2023/05/02 02:52:59;;;;;;;9.10;5.50;;;;;;;8.50;55.68;100024.87;131263;1254;107515;-79
2023/05/02 02:56:13;;;;;;;7.70;5.00;;;;;;;8.49;55.78;100024.96;131227;1253;107489;-79
2023/05/02 02:59:26;;;;;;;9.10;5.00;;;;;;;8.47;55.76;100027.09;131363;1248;107227;-80
2023/05/02 03:02:35;;;;;;;8.30;5.20;;;;;;;8.47;55.94;100024.47;131418;1248;107355;-80
2023/05/02 03:05:42;;;;;;;11.10;5.70;;;;;;;8.45;56.04;100023.02;131498;1247;107216;-80
2023/05/02 03:08:48;;;;;;;9.60;5.50;;;;;;;8.44;56.14;100021.94;131464;1253;107344;-81
2023/05/02 03:11:56;;;;;;;14.10;5.90;;;;;;;8.42;56.14;100023.86;131524;1248;107456;-80
2023/05/02 03:15:17;;;;;;;9.20;5.20;;;;;;;8.41;56.15;100021.96;131432;1250;107547;-80
2023/05/02 03:18:24;;;;;;;8.70;5.00;;;;;;;8.40;56.17;100021.56;131399;1248;107493;-79
2023/05/02 03:21:30;;;;;;;9.40;5.30;;;;;;;8.38;56.48;100022.05;131369;1247;107296;-80
2023/05/02 03:24:37;;;;;;;10.80;5.70;;;;;;;8.38;56.68;100024.54;131545;1248;106394;-80
2023/05/02 03:27:43;;;;;;;7.80;5.20;;;;;;;8.39;56.69;100022.66;131598;1253;106672;-80
2023/05/02 03:30:49;;;;;;;11.10;5.90;;;;;;;8.40;56.54;100018.52;131387;1253;107518;-80
2023/05/02 03:33:54;;;;;;;8.00;5.10;;;;;;;8.43;56.81;100022.91;131266;1256;107654;-79
2023/05/02 03:37:01;;;;;;;9.70;5.50;;;;;;;8.47;56.83;100021.46;131215;1250;107448;-80
2023/05/02 03:40:09;;;;;;;9.80;5.40;;;;;;;8.49;56.98;100016.10;131372;1248;107382;-80
2023/05/02 03:43:15;;;;;;;8.00;4.90;;;;;;;8.53;57.14;100016.62;131370;1253;107485;-80
2023/05/02 03:46:21;;;;;;;8.80;5.30;;;;;;;8.58;57.09;100012.27;131333;1253;108309;-80
2023/05/02 03:49:26;;;;;;;8.50;6.00;;;;;;;8.62;57.35;100012.92;131639;1252;108525;-78
2023/05/02 03:52:33;;;;;;;8.60;5.30;;;;;;;8.68;57.29;100013.98;131560;1248;107249;-78
2023/05/02 03:55:42;;;;;;;7.50;4.90;;;;;;;8.75;57.20;100016.98;131411;1253;107479;-78
2023/05/02 03:58:49;;;;;;;7.70;5.00;;;;;;;8.84;57.26;100018.59;131153;1253;107618;-79
2023/05/02 04:01:56;;;;;;;7.70;5.40;;;;;;;8.93;57.24;100017.77;131331;1248;107510;-78
2023/05/02 04:05:07;;;;;;;;;;;;;;;9.01;57.20;100023.18;131515;1249;108791;-78
2023/05/02 04:08:13;;;;;;;7.20;4.90;;;;;;;9.09;57.52;100023.91;131334;1250;107489;-78
2023/05/02 04:11:20;;;;;;;8.70;5.40;;;;;;;9.15;57.51;100020.23;131597;1248;107376;-79
2023/05/02 04:14:27;;;;;;;8.60;5.50;;;;;;;9.24;57.49;100021.64;131385;1253;107337;-78
2023/05/02 04:17:34;;;;;;;6.80;5.00;;;;;;;9.35;57.61;100028.07;131196;1253;107243;-79
2023/05/02 04:20:39;;;;;;;11.10;5.50;;;;;;;9.46;57.61;100025.02;131245;1254;107569;-79
2023/05/02 04:23:45;;;;;;;7.40;4.90;;;;;;;9.57;57.65;100024.42;131159;1257;107234;-79
2023/05/02 04:26:50;;;;;;;11.00;5.70;;;;;;;9.70;57.68;100027.64;131173;1253;107497;-78
2023/05/02 04:29:57;;;;;;;9.60;5.20;;;;;;;9.85;57.79;100034.33;131443;1250;107456;-78
2023/05/02 04:33:03;;;;;;;10.60;5.60;;;;;;;10.00;57.72;100028.48;131648;1252;107388;-78
2023/05/02 04:36:12;;;;;;;8.00;5.10;;;;;;;10.20;57.81;100028.30;131418;1251;107730;-78
2023/05/02 04:39:21;;;;;;;8.00;5.50;;;;;;;10.44;57.63;100027.67;131570;1247;107384;-78
2023/05/02 04:42:36;;;;;;;10.90;5.90;;;;;;;10.69;57.83;100026.71;131325;1252;107375;-78
2023/05/02 04:45:50;;;;;;;8.70;5.80;;;;;;;10.87;57.87;100026.73;131313;1253;109465;-79
2023/05/02 04:49:02;;;;;;;7.80;5.50;;;;;;;10.99;57.77;100020.70;131481;1253;107479;-78
2023/05/02 04:52:09;;;;;;;8.70;5.50;;;;;;;11.09;57.59;100018.59;131389;1253;107435;-77
2023/05/02 04:55:15;;;;;;;7.90;5.10;;;;;;;11.23;57.42;100016.06;131272;1253;107520;-77
2023/05/02 04:58:22;;;;;;;8.80;5.50;;;;;;;11.41;57.45;100017.71;131218;1251;107468;-78
2023/05/02 05:01:34;;;;;;;9.70;4.90;;;;;;;11.57;57.43;100015.29;131245;1252;107460;-77
2023/05/02 05:04:41;;;;;;;10.00;5.60;;;;;;;11.73;57.59;100017.78;131374;1253;107448;-77
2023/05/02 05:07:47;;;;;;;7.50;5.00;;;;;;;11.85;57.34;100018.29;131112;1249;107355;-78
2023/05/02 05:10:54;;;;;;;7.80;5.60;;;;;;;11.94;57.37;100020.35;130958;1254;107512;-78
2023/05/02 05:14:02;;;;;;;8.50;5.40;;;;;;;12.04;57.47;100016.59;130980;1255;107431;-77
2023/05/02 05:17:09;;;;;;;9.20;5.70;;;;;;;12.16;57.37;100015.59;130997;1253;107435;-77
2023/05/02 05:20:15;;;;;;;7.90;5.70;;;;;;;12.29;57.46;100015.27;131149;1253;106523;-76
2023/05/02 05:23:21;;;;;;;8.50;5.50;;;;;;;12.40;57.53;100014.02;131273;1254;107386;-77
2023/05/02 05:26:26;;;;;;;9.30;6.10;;;;;;;12.49;57.30;100014.70;131321;1251;107269;-76
2023/05/02 05:29:34;;;;;;;9.10;5.90;;;;;;;12.49;57.27;100019.13;131117;1251;107402;-76
2023/05/02 05:32:41;;;;;;;8.50;5.70;;;;;;;12.52;57.50;100018.82;131136;1253;107566;-75
2023/05/02 05:35:46;;;;;;;8.00;5.50;;;;;;;12.54;57.48;100019.09;131087;1250;107276;-75
2023/05/02 05:38:52;;;;;;;8.10;5.70;;;;;;;12.59;57.56;100019.84;131107;1251;106522;-76
2023/05/02 05:41:59;;;;;;;9.70;5.80;;;;;;;12.67;57.65;100020.11;131211;1257;107520;-76
2023/05/02 05:45:07;;;;;;;12.50;5.90;;;;;;;12.80;57.88;100018.37;131068;1250;107285;-75
2023/05/02 05:48:16;;;;;;;10.00;6.10;;;;;;;12.98;57.77;100015.91;131093;1256;107531;-76
2023/05/02 05:51:26;;;;;;;7.50;5.60;;;;;;;13.14;57.84;100012.68;131341;1254;107364;-76
2023/05/02 05:54:31;;;;;;;8.10;5.60;;;;;;;13.26;57.65;100016.17;131032;1249;107626;-75
2023/05/02 05:57:38;;;;;;;8.60;5.80;;;;;;;13.37;57.62;100018.55;131101;1254;107949;-76
2023/05/02 06:00:44;;;;;;;8.20;5.80;;;;;;;13.48;57.64;100020.77;131025;1256;106409;-77
2023/05/02 06:03:49;;;;;;;8.80;6.20;;;;;;;13.61;57.68;100022.33;131176;1256;107367;-76
2023/05/02 06:07:03;;;;;;;9.80;5.80;;;;;;;13.76;57.85;100021.86;131219;1247;107405;-78
2023/05/02 06:10:11;;;;;;;10.40;5.90;;;;;;;13.93;57.80;100019.91;131467;1250;107118;-78
2023/05/02 06:13:19;;;;;;;7.80;5.50;;;;;;;14.06;57.93;100025.13;131432;1254;107406;-78
2023/05/02 06:16:25;;;;;;;8.50;5.80;;;;;;;14.18;57.84;100021.81;131322;1251;107400;-79
2023/05/02 06:19:31;;;;;;;9.50;6.10;;;;;;;14.31;57.85;100023.58;131277;1247;106512;-79
2023/05/02 06:22:38;;;;;;;9.50;5.50;;;;;;;14.45;57.84;100025.19;131414;1253;107394;-79
2023/05/02 06:25:44;;;;;;;9.20;5.30;;;;;;;14.60;57.77;100025.18;131798;1252;108954;-80
2023/05/02 06:28:49;;;;;;;13.10;5.50;;;;;;;14.74;57.53;100026.91;131884;1253;107545;-79
2023/05/02 06:31:57;;;;;;;7.40;5.30;;;;;;;14.84;57.50;100026.89;131682;1247;107352;-78
2023/05/02 06:35:03;;;;;;;8.50;4.90;;;;;;;15.00;57.38;100024.48;131755;1252;107541;-78
2023/05/02 06:38:09;;;;;;;10.20;5.00;;;;;;;15.18;57.34;100022.14;131614;1248;108446;-78
2023/05/02 06:41:16;;;;;;;8.10;5.00;;;;;;;15.30;57.18;100020.27;131364;1253;107477;-79
2023/05/02 06:44:21;;;;;;;8.90;5.20;;;;;;;15.37;56.77;100022.63;131189;1253;106530;-76
2023/05/02 06:47:27;;;;;;;7.10;4.90;;;;;;;15.44;56.74;100027.17;131209;1252;107356;-77
2023/05/02 06:50:32;;;;;;;9.00;4.90;;;;;;;15.50;56.20;100029.65;131531;1248;106257;-76
2023/05/02 06:53:38;;;;;;;5.10;4.40;;;;;;;15.54;56.50;100028.95;131750;1251;107518;-76
2023/05/02 06:56:43;;;;;;;8.40;4.80;;;;;;;15.62;56.29;100028.85;131232;1250;107212;-77
2023/05/02 06:59:49;;;;;;;9.10;5.30;;;;;;;15.73;56.26;100031.80;131300;1253;107511;-76
2023/05/02 07:02:55;;;;;;;7.00;4.70;;;;;;;15.86;56.13;100036.06;131301;1252;107364;-78
2023/05/02 07:06:00;;;;;;;6.50;4.70;;;;;;;16.01;56.20;100045.65;131832;1247;106683;-77
2023/05/02 07:09:06;;;;;;;8.80;5.00;;;;;;;16.17;56.16;100049.41;131781;1250;107506;-76
2023/05/02 07:12:11;;;;;;;8.50;5.70;;;;;;;16.32;56.15;100052.85;131472;1253;107357;-77
2023/05/02 07:15:17;;;;;;;8.00;5.10;;;;;;;16.45;55.84;100054.02;131330;1253;106252;-77
2023/05/02 07:18:22;;;;;;;8.80;4.90;;;;;;;16.56;55.66;100051.48;131381;1253;105574;-75
2023/05/02 07:21:28;;;;;;;7.60;5.10;;;;;;;16.65;55.48;100054.44;131392;1247;107494;-75
2023/05/02 07:24:34;;;;;;;10.00;5.50;;;;;;;16.73;55.30;100057.73;131419;1252;107514;-75
2023/05/02 07:27:39;;;;;;;8.80;5.40;;;;;;;16.82;55.29;100054.06;131451;1250;107523;-78
2023/05/02 07:30:45;;;;;;;7.70;5.40;;;;;;;16.94;55.48;100052.54;131405;1253;107511;-79
2023/05/02 07:33:50;;;;;;;8.90;5.40;;;;;;;17.08;55.46;100055.59;131293;1253;107515;-78
2023/05/02 07:36:56;;;;;;;8.50;5.70;;;;;;;17.23;55.23;100066.09;131401;1253;107544;-78
2023/05/02 07:40:01;;;;;;;8.60;5.50;;;;;;;17.30;54.81;100061.97;131799;1253;107596;-78
2023/05/02 07:43:07;;;;;;;8.10;5.20;;;;;;;17.38;54.74;100064.56;131273;1248;107283;-76
2023/05/02 07:46:12;;;;;;;7.80;5.30;;;;;;;17.48;54.69;100070.63;131358;1252;107399;-76
2023/05/02 07:49:18;;;;;;;7.20;5.10;;;;;;;17.57;54.87;100073.34;131175;1253;107375;-76
2023/05/02 07:52:24;;;;;;;6.90;5.30;;;;;;;17.73;54.90;100074.06;131155;1253;107490;-75
2023/05/02 07:55:32;;;;;;;6.80;4.90;;;;;;;17.86;54.88;100074.92;131178;1250;107260;-75
2023/05/02 07:58:37;;;;;;;7.60;5.40;;;;;;;17.99;54.56;100077.15;131217;1249;107258;-75
2023/05/02 08:01:43;;;;;;;7.10;4.90;;;;;;;18.13;54.58;100077.78;131334;1253;107633;-75
2023/05/02 08:04:49;;;;;;;6.70;5.30;;;;;;;18.31;53.96;100084.35;131432;1251;107524;-76
2023/05/02 08:07:55;;;;;;;6.40;5.00;;;;;;;18.45;53.69;100086.60;131341;1254;107529;-76
2023/05/02 08:11:00;;;;;;;7.00;4.60;;;;;;;18.55;53.12;100093.61;131441;1263;106244;-78
2023/05/02 08:14:06;;;;;;;7.10;4.70;;;;;;;18.62;53.16;100092.89;131679;1252;107370;-78
2023/05/02 08:17:11;;;;;;;5.50;4.60;;;;;;;18.75;53.36;100093.18;131280;1248;107555;-79
2023/05/02 08:20:17;;;;;;;6.30;5.00;;;;;;;18.91;53.42;100099.52;131457;1261;107399;-77
2023/05/02 08:23:22;;;;;;;6.20;4.70;;;;;;;19.04;52.83;100098.66;131486;1253;107453;-78
2023/05/02 08:26:28;;;;;;;8.70;4.60;;;;;;;19.17;53.40;100094.14;131209;1253;107392;-78
2023/05/02 08:29:34;;;;;;;6.10;4.30;;;;;;;19.35;52.98;100101.68;131552;1252;107515;-80
2023/05/02 08:32:39;;;;;;;6.00;4.20;;;;;;;19.53;52.88;100101.52;131274;1253;107509;-78
2023/05/02 08:35:45;;;;;;;6.90;5.30;;;;;;;19.68;52.66;100106.44;131211;1253;107502;-79
2023/05/02 08:38:50;;;;;;;6.90;5.20;;;;;;;19.77;52.16;100115.29;131597;1251;107404;-79
2023/05/02 08:41:56;;;;;;;7.40;4.80;;;;;;;19.83;51.76;100114.63;131168;1253;107403;-80
2023/05/02 08:45:02;;;;;;;6.50;5.10;;;;;;;19.91;51.85;100123.79;131403;1253;106389;-80
2023/05/02 08:48:10;;;;;;;5.50;4.30;;;;;;;19.89;51.39;100130.97;131765;1253;107583;-79
2023/05/02 08:51:17;;;;;;;7.80;5.00;;;;;;;19.83;51.46;100138.45;131521;1253;107524;-78
2023/05/02 08:54:25;;;;;;;7.50;5.20;;;;;;;19.80;51.54;100142.39;131409;1247;107290;-75
2023/05/02 08:57:31;;;;;;;6.20;4.60;;;;;;;19.90;51.29;100148.55;131619;1251;107537;-77
2023/05/02 09:00:40;;;;;;;5.70;4.50;;;;;;;19.91;51.20;100154.20;131395;1248;107504;-80
2023/05/02 09:03:47;;;;;;;5.90;4.50;;;;;;;19.93;50.69;100160.40;131531;1253;107338;-77
2023/05/02 09:06:53;;;;;;;5.80;4.90;;;;;;;19.88;50.54;100162.30;131254;1252;107669;-79
2023/05/02 09:09:59;;;;;;;5.50;4.60;;;;;;;19.93;51.13;100154.27;131267;1253;107524;-76
2023/05/02 09:13:34;;;;;;;8.10;5.20;;;;;;;20.11;50.46;100155.86;131261;1251;107480;-78
2023/05/02 09:16:41;;;;;;;6.90;5.00;;;;;;;20.06;50.79;100157.44;131575;1251;107258;-77
2023/05/02 09:19:46;;;;;;;9.80;5.00;;;;;;;20.05;49.67;100154.58;131218;1250;107491;-78
2023/05/02 09:22:52;;;;;;;6.80;4.40;;;;;;;19.89;50.32;100161.88;131246;1251;107373;-79
2023/05/02 09:25:58;;;;;;;5.60;5.00;;;;;;;19.93;50.33;100167.94;131470;1253;107993;-77
2023/05/02 09:29:09;;;;;;;6.20;5.10;;;;;;;19.88;50.34;100177.02;131439;1253;107495;-77
2023/05/02 09:32:16;;;;;;;8.40;5.00;;;;;;;19.87;50.35;100187.39;131335;1252;107602;-76
2023/05/02 09:35:25;;;;;;;7.10;4.90;;;;;;;19.87;50.67;100187.98;131842;1253;107265;-76
2023/05/02 09:38:31;;;;;;;7.80;4.50;;;;;;;19.93;50.71;100190.19;131474;1253;107586;-77
2023/05/02 09:41:42;;;;;;;5.30;4.40;;;;;;;19.94;50.76;100197.34;131358;1248;107256;-75
2023/05/02 09:44:50;;;;;;;6.90;5.00;;;;;;;19.92;50.52;100199.37;131178;1253;107504;-77
2023/05/02 09:48:01;;;;;;;6.10;4.90;;;;;;;19.73;49.89;100201.80;131314;1248;105674;-79
2023/05/02 09:51:18;;;;;;;6.90;5.00;;;;;;;19.50;50.44;100207.91;131582;1253;107517;-75
2023/05/02 09:54:37;;;;;;;6.40;4.50;;;;;;;19.30;50.45;100214.83;131467;1253;107569;-76
2023/05/02 09:57:42;;;;;;;6.70;5.10;;;;;;;19.07;50.16;100227.09;131437;1253;107490;-77
2023/05/02 10:00:49;;;;;;;8.10;6.20;;;;;;;18.76;49.22;100239.38;131155;1248;107536;-77
2023/05/02 10:03:55;;;;;;;7.40;5.90;;;;;;;18.21;48.57;100243.77;131263;1250;107251;-77
2023/05/02 10:07:02;;;;;;;8.70;6.30;;;;;;;17.69;49.39;100247.23;131274;1253;107512;-77
2023/05/02 10:10:12;;;;;;;9.10;6.30;;;;;;;17.27;50.43;100260.73;131507;1253;107537;-76
2023/05/02 10:13:20;;;;;;;8.10;6.50;;;;;;;17.09;51.00;100263.00;131155;1252;106708;-76
2023/05/02 10:16:31;;;;;;;8.20;6.70;;;;;;;16.93;51.77;100266.44;131239;1253;107552;-76
2023/05/02 10:19:43;;;;;;;7.90;6.10;;;;;;;16.79;52.07;100269.05;131184;1252;106509;-76
2023/05/02 10:22:47;;;;;;;;;;;;;;;16.81;52.48;100273.11;131400;1249;107500;-76
2023/05/02 10:25:53;;;;;;;10.40;6.50;;;;;;;16.94;53.62;100273.88;131228;1253;107523;-75
2023/05/02 10:29:00;;;;;;;8.80;6.30;;;;;;;17.07;53.67;100271.73;131419;1247;107503;-77
2023/05/02 10:32:08;;;;;;;10.40;7.00;;;;;;;17.37;53.42;100269.30;131375;1248;107491;-76
2023/05/02 10:35:15;;;;;;;8.80;6.80;;;;;;;17.57;53.29;100268.39;131376;1253;106847;-76
2023/05/02 10:38:23;;;;;;;9.00;6.80;;;;;;;17.74;52.99;100278.83;131269;1254;106624;-76
2023/05/02 10:41:33;;;;;;;9.50;7.70;;;;;;;17.80;53.09;100283.55;131423;1253;106772;-76
2023/05/02 10:44:40;;;;;;;9.00;7.30;;;;;;;17.79;53.31;100278.42;131648;1254;107510;-76
2023/05/02 10:47:45;;;;;;;8.50;7.00;;;;;;;17.91;53.48;100279.96;131430;1253;107485;-77
2023/05/02 10:50:52;;;;;;;8.90;7.30;;;;;;;18.19;53.29;100280.67;131366;1248;108666;-78
2023/05/02 10:54:24;;;;;;;10.00;6.80;;;;;;;18.32;53.08;100286.99;131467;1251;107537;-77
2023/05/02 10:57:30;;;;;;;7.70;6.50;;;;;;;18.42;53.08;100287.35;131685;1252;107485;-77
2023/05/02 11:00:35;;;;;;;7.80;6.60;;;;;;;18.66;53.14;100287.73;131568;1249;107473;-77
2023/05/02 11:03:58;;;;;;;7.80;6.20;;;;;;;18.86;52.83;100288.88;131519;1252;107436;-76
2023/05/02 11:07:22;;;;;;;7.80;6.20;;;;;;;19.02;52.92;100291.75;131455;1247;107537;-79
2023/05/02 11:10:28;;;;;;;7.50;5.90;;;;;;;19.04;52.38;100293.62;131389;1251;107250;-77
2023/05/02 11:13:52;;;;;;;7.30;5.60;;;;;;;19.03;52.82;100294.83;131390;1252;107593;-77
2023/05/02 11:17:12;;;;;;;5.80;5.20;;;;;;;19.10;52.37;100296.49;131339;1247;108648;-79
2023/05/02 11:20:25;;;;;;;6.10;5.00;;;;;;;19.11;51.93;100297.41;131518;1252;107196;-78
2023/05/02 11:23:31;;;;;;;7.40;5.30;;;;;;;19.19;51.73;100291.91;131534;1247;107913;-76
2023/05/02 11:26:36;;;;;;;6.10;5.20;;;;;;;19.31;52.05;100291.61;131246;1247;107488;-76
2023/05/02 11:29:55;;;;;;;7.10;4.50;;;;;;;19.47;50.35;100296.72;131187;1253;107150;-76
2023/05/02 11:33:20;;;;;;;6.00;4.30;;;;;;;19.39;49.65;100299.23;131333;1252;107507;-76
2023/05/02 11:36:32;;;;;;;5.10;4.00;;;;;;;19.50;50.56;100304.64;131238;1253;107542;-75
2023/05/02 11:39:37;;;;;;;6.90;4.30;;;;;;;19.63;49.49;100311.14;131213;1253;107445;-76
2023/05/02 11:42:43;;;;;;;5.20;3.70;;;;;;;19.53;49.81;100313.32;131412;1252;107515;-76
2023/05/02 11:45:49;;;;;;;4.20;3.80;;;;;;;19.53;49.05;100316.48;131442;1254;107548;-76
2023/05/02 11:48:55;;;;;;;6.90;4.60;;;;;;;19.41;48.24;100318.67;131523;1251;107542;-77
2023/05/02 11:52:03;;;;;;;5.60;4.30;;;;;;;19.22;48.01;100325.33;131228;1253;107537;-76
2023/05/02 11:55:13;;;;;;;6.00;3.70;;;;;;;19.19;48.91;100326.25;131283;1253;107636;-76
2023/05/02 11:58:21;;;;;;;5.60;4.10;;;;;;;19.34;48.91;100332.16;131497;1263;106277;-76
2023/05/02 12:01:27;;;;;;;6.50;4.60;;;;;;;19.33;47.17;100336.49;131475;1251;106201;-76
2023/05/02 12:04:42;;;;;;;6.40;4.50;;;;;;;19.12;47.33;100344.02;129836;1252;2081735;-78
2023/05/02 12:07:49;;;;;;;7.70;4.30;;;;;;;19.02;47.59;100348.09;131163;1248;107620;-79
2023/05/02 12:10:58;;;;;;;6.00;3.90;;;;;;;18.96;48.12;100353.73;131134;1253;107380;-78
2023/05/02 12:14:03;;;;;;;6.10;4.10;;;;;;;18.91;47.90;100354.77;131391;1252;107594;-78
2023/05/02 12:17:09;;;;;;;5.50;3.60;;;;;;;18.93;47.63;100356.32;131276;1249;107593;-76
2023/05/02 12:20:15;;;;;;;5.50;3.70;;;;;;;18.90;47.30;100355.56;131176;1253;108600;-75
2023/05/02 12:23:23;;;;;;;5.60;4.20;;;;;;;18.93;47.51;100356.60;131278;1251;107491;-77
2023/05/02 12:26:31;;;;;;;5.00;3.90;;;;;;;19.01;47.22;100358.27;131482;1248;107853;-78
2023/05/02 12:29:41;;;;;;;5.10;3.60;;;;;;;19.04;47.41;100360.53;131251;1251;107412;-80
2023/05/02 12:32:55;;;;;;;6.90;4.70;;;;;;;19.15;46.92;100360.66;131339;1253;107425;-78
2023/05/02 12:36:09;;;;;;;6.00;4.10;;;;;;;19.21;46.08;100362.16;131254;1253;107200;-77
2023/05/02 12:39:15;;;;;;;4.10;3.50;;;;;;;19.27;46.50;100360.27;131438;1253;106236;-77
2023/05/02 12:42:22;;;;;;;3.90;3.20;;;;;;;19.33;46.91;100363.26;131356;1252;107955;-78
2023/05/02 12:45:32;;;;;;;4.90;3.60;;;;;;;19.45;46.02;100364.04;131168;1253;107579;-77
2023/05/02 12:48:40;;;;;;;6.60;3.70;;;;;;;19.49;46.12;100363.54;131278;1254;106520;-76
2023/05/02 12:51:55;;;;;;;4.30;3.70;;;;;;;19.53;46.20;100360.99;131204;1263;107490;-77
2023/05/02 12:55:17;;;;;;;6.00;3.30;;;;;;;19.53;45.91;100368.78;131727;1252;108114;-77
2023/05/02 12:58:25;;;;;;;5.20;2.90;;;;;;;19.51;45.86;100367.24;131490;1253;107524;-77
2023/05/02 13:01:32;;;;;;;5.30;3.50;;;;;;;19.57;46.28;100365.66;131516;1251;107190;-77
2023/05/02 13:04:40;;;;;;;4.10;3.20;;;;;;;19.61;45.61;100375.70;131231;1253;107470;-77
2023/05/02 13:07:46;;;;;;;3.90;3.10;;;;;;;19.59;45.59;100379.81;131124;1253;107454;-78
2023/05/02 13:10:52;;;;;;;4.50;3.20;;;;;;;19.63;45.66;100376.77;131173;1257;106257;-77
2023/05/02 13:13:59;;;;;;;5.30;3.40;;;;;;;19.60;44.01;100377.89;131295;1254;107389;-77
2023/05/02 13:17:04;;;;;;;5.30;4.20;;;;;;;19.45;44.99;100378.45;131147;1253;107248;-77
2023/05/02 13:20:12;;;;;;;4.80;3.40;;;;;;;19.40;45.08;100377.67;131291;1253;107533;-76
2023/05/02 13:23:17;;;;;;;4.50;3.30;;;;;;;19.45;45.10;100378.36;131293;1253;106919;-77
2023/05/02 13:26:23;;;;;;;4.40;3.30;;;;;;;19.55;45.37;100380.89;131191;1253;107583;-76
2023/05/02 13:29:28;;;;;;;5.10;3.40;;;;;;;19.60;44.85;100387.11;131224;1253;107532;-77
2023/05/02 13:32:34;;;;;;;7.00;3.60;;;;;;;19.64;45.18;100390.30;131176;1253;107582;-77
2023/05/02 13:35:39;;;;;;;5.30;3.10;;;;;;;19.67;44.93;100389.80;131170;1253;107491;-77
2023/05/02 13:38:45;;;;;;;4.70;3.30;;;;;;;19.70;45.15;100392.77;131437;1253;107393;-77
2023/05/02 13:41:51;;;;;;;6.40;3.20;;;;;;;19.71;45.14;100395.77;131400;1251;107284;-77
2023/05/02 13:44:56;;;;;;;5.40;3.30;;;;;;;19.64;44.15;100396.46;131354;1254;107434;-77
2023/05/02 13:48:02;;;;;;;4.20;3.40;;;;;;;19.47;43.60;100396.98;131340;1250;107520;-77
2023/05/02 13:51:08;;;;;;;4.70;3.70;;;;;;;19.40;44.32;100397.43;131519;1253;107554;-77
2023/05/02 13:54:14;;;;;;;5.90;4.70;;;;;;;19.30;42.76;100394.39;131377;1253;107508;-78
2023/05/02 13:57:20;;;;;;;4.00;3.00;;;;;;;19.29;44.63;100395.97;131212;1253;106663;-76
2023/05/02 14:00:27;;;;;;;4.30;3.70;;;;;;;19.48;44.48;100392.55;131288;1253;107483;-79
2023/05/02 14:03:33;;;;;;;5.90;3.70;;;;;;;19.50;43.18;100392.80;131440;1251;107603;-80
2023/05/02 14:06:39;;;;;;;7.30;4.20;;;;;;;19.44;42.98;100393.43;131194;1253;107500;-78
2023/05/02 14:09:44;;;;;;;6.40;4.90;;;;;;;19.39;42.99;100389.56;131177;1253;107489;-78
2023/05/02 14:12:51;;;;;;;5.10;3.60;;;;;;;19.45;43.40;100382.24;131229;1253;107602;-78
2023/05/02 14:15:58;;;;;;;4.50;3.40;;;;;;;19.60;44.15;100383.35;131376;1248;108151;-78